Apache Junction, Arizona
Current Conditions -  °F | °C
As of 3:15 AM on Saturday 25 Oct 2014 (Local Time) from KIWA Reporting Station
Clear Clear  
Wind Chill: 64°   Ceiling: Unl
Heat Index: 64°   Visibility: 10mi
Dew Point: 48°   Wind: 7mph
Humidity: 56%   Direction: 90°E
Pressure: 30.02"   Gusts: NA
Location:  33.42°N, 111.54°W
Report Text: KIWA 251015Z AUTO 09006KT 10SM CLR 18/09 A3002 RMK AO2
Loading
Personal Weather Stations






























Interactive Weather Map
Tropical Storm Tracking
New forecast layout! Learn more

10-Day Weather Forecast

Advertisements
Track Severe Weather on mobile